Time;durP1;ratioP1;P1;durP2;ratioP2;P2;SDS_P1;SDS_P2;PMS_P1;PMS_P2;Temp;Humidity;BMP_temperature;BMP_pressure;BME280_temperature;BME280_humidity;BME280_pressure;Samples;Min_cycle;Max_cycle;Signal;HPM_P1;HPM_P2
2021/01/27 06:01:39;;;;;;;;;;;;;;;;;;5065853;28;20485;-48
2021/01/27 06:04:11;;;;;;;0.00;0.00;;;;;;;;;;5064907;28;20007;-47
2021/01/27 06:06:43;;;;;;;0.00;0.00;;;;;;;;;;5065541;28;20032;-50
2021/01/27 06:09:09;;;;;;;0.00;0.00;;;;;;;;;;5066735;28;20494;-47
2021/01/27 06:11:36;;;;;;;0.25;0.10;;;;;;;;;;5066318;28;20398;-53
2021/01/27 06:14:05;;;;;;;0.00;0.00;;;;;;;;;;5063729;28;20129;-48
2021/01/27 06:16:41;;;;;;;0.03;0.03;;;;;;;;;;5065944;28;20040;-48
2021/01/27 06:19:10;;;;;;;0.00;0.00;;;;;;;;;;5065289;28;20067;-47
2021/01/27 06:21:42;;;;;;;0.22;0.13;;;;;;;;;;5066373;28;20033;-51
2021/01/27 06:24:27;;;;;;;0.00;0.00;;;;;;;;;;5066054;28;20032;-48
2021/01/27 06:26:56;;;;;;;0.88;0.75;;;;;;;;;;5063050;28;20025;-48
2021/01/27 06:29:40;;;;;;;0.00;0.00;;;;;;;;;;5063833;28;20393;-48
2021/01/27 06:32:12;;;;;;;0.00;0.00;;;;;;;;;;5064394;28;20039;-49
2021/01/27 06:34:51;;;;;;;0.05;0.05;;;;;;;;;;5047849;28;20020;-50
2021/01/27 06:37:22;;;;;;;0.00;0.00;;;;;;;;;;5062860;28;20505;-49
2021/01/27 06:40:03;;;;;;;0.25;0.05;;;;;;;;;;5065203;28;20037;-47
2021/01/27 06:42:36;;;;;;;0.00;0.00;;;;;;;;;;5063779;28;20500;-48
2021/01/27 06:45:21;;;;;;;0.38;0.10;;;;;;;;;;5063679;28;20033;-49
2021/01/27 06:47:50;;;;;;;0.20;0.00;;;;;;;;;;5063454;28;20092;-49
2021/01/27 06:50:30;;;;;;;0.00;0.00;;;;;;;;;;5063061;28;20044;-48
2021/01/27 06:53:14;;;;;;;1.25;0.60;;;;;;;;;;5063544;28;20446;-48
2021/01/27 06:55:40;;;;;;;0.00;0.00;;;;;;;;;;5048017;28;20547;-48
2021/01/27 06:58:25;;;;;;;0.10;0.10;;;;;;;;;;5067367;28;20029;-47
2021/01/27 07:01:10;;;;;;;0.10;0.10;;;;;;;;;;5061496;28;20045;-47
2021/01/27 07:03:55;;;;;;;0.00;0.00;;;;;;;;;;5053831;28;20065;-49
2021/01/27 07:06:33;;;;;;;0.10;0.10;;;;;;;;;;5053334;28;20387;-48
2021/01/27 07:09:05;;;;;;;0.00;0.00;;;;;;;;;;5053109;28;20028;-50
2021/01/27 07:11:52;;;;;;;0.00;0.00;;;;;;;;;;5050848;28;20841;-47
2021/01/27 07:14:24;;;;;;;0.00;0.00;;;;;;;;;;5046391;28;20032;-49
2021/01/27 07:17:03;;;;;;;0.00;0.00;;;;;;;;;;5050976;28;20119;-48
2021/01/27 07:19:46;;;;;;;0.00;0.00;;;;;;;;;;5051332;28;20045;-48
2021/01/27 07:22:18;;;;;;;0.00;0.00;;;;;;;;;;5049207;28;20418;-48
2021/01/27 07:24:57;;;;;;;0.75;0.50;;;;;;;;;;5053246;28;20187;-48
2021/01/27 07:27:23;;;;;;;0.00;0.00;;;;;;;;;;5049561;28;20033;-47
2021/01/27 07:30:16;;;;;;;0.00;0.00;;;;;;;;;;5051594;28;20036;-47
2021/01/27 07:32:46;;;;;;;1.45;0.20;;;;;;;;;;5046264;28;20041;-52
2021/01/27 07:35:14;;;;;;;1.92;1.02;;;;;;;;;;5048817;28;20082;-47
2021/01/27 07:37:50;;;;;;;6.05;0.75;;;;;;;;;;5033251;28;20436;-49
2021/01/27 07:40:20;;;;;;;10.75;0.52;;;;;;;;;;5051023;28;20612;-48
2021/01/27 07:42:52;;;;;;;0.20;0.03;;;;;;;;;;5050042;28;20104;-48
2021/01/27 07:45:20;;;;;;;0.65;0.63;;;;;;;;;;5048739;28;20036;-49
2021/01/27 07:47:54;;;;;;;1.55;0.68;;;;;;;;;;5048172;28;20029;-48
2021/01/27 07:50:21;;;;;;;2.72;1.25;;;;;;;;;;5050061;28;20048;-52
2021/01/27 07:52:50;;;;;;;0.30;0.25;;;;;;;;;;5050462;28;20039;-48
2021/01/27 07:55:19;;;;;;;0.25;0.25;;;;;;;;;;5048862;28;20021;-49
2021/01/27 07:57:52;;;;;;;0.75;0.40;;;;;;;;;;5049855;28;20032;-48
2021/01/27 08:00:22;;;;;;;1.52;1.17;;;;;;;;;;5048198;28;20059;-53
2021/01/27 08:03:07;;;;;;;0.10;0.03;;;;;;;;;;5048253;28;20481;-48
2021/01/27 08:05:38;;;;;;;0.00;0.00;;;;;;;;;;5048151;28;20410;-50
2021/01/27 08:08:23;;;;;;;0.25;0.25;;;;;;;;;;5049747;28;20359;-48
2021/01/27 08:10:50;;;;;;;2.95;0.32;;;;;;;;;;5049248;28;20502;-47
2021/01/27 08:13:28;;;;;;;0.45;0.40;;;;;;;;;;5047482;28;20499;-49
2021/01/27 08:16:03;;;;;;;0.47;0.25;;;;;;;;;;5049587;28;20025;-48
2021/01/27 08:18:29;;;;;;;;;;;;;;;;;;5048273;28;20033;-49
2021/01/27 08:20:55;;;;;;;;;;;;;;;;;;5048355;28;19911;-48
2021/01/27 08:23:21;;;;;;;;;;;;;;;;;;5048568;28;19908;-47
2021/01/27 08:25:47;;;;;;;;;;;;;;;;;;5049716;28;20034;-50
2021/01/27 08:28:13;;;;;;;;;;;;;;;;;;5049053;28;20027;-49
2021/01/27 08:30:39;;;;;;;;;;;;;;;;;;5049037;28;20015;-48
2021/01/27 08:33:05;;;;;;;;;;;;;;;;;;5047357;28;19904;-50
2021/01/27 08:35:32;;;;;;;;;;;;;;;;;;5047856;28;19912;-48
2021/01/27 08:38:31;;;;;;;0.00;0.00;;;;;;;;;;5049142;28;20336;-47
2021/01/27 08:40:57;;;;;;;0.03;0.03;;;;;;;;;;5008001;28;20503;-50
2021/01/27 08:43:33;;;;;;;0.32;0.30;;;;;;;;;;5006422;28;20034;-51
2021/01/27 08:46:19;;;;;;;2.45;0.20;;;;;;;;;;5006609;28;20045;-47
2021/01/27 08:48:48;;;;;;;0.70;0.70;;;;;;;;;;5005861;28;20871;-47
2021/01/27 08:51:34;;;;;;;0.30;0.28;;;;;;;;;;5007677;28;20056;-49
2021/01/27 08:54:01;;;;;;;0.00;0.00;;;;;;;;;;5007155;28;20048;-47
2021/01/27 08:56:47;;;;;;;0.00;0.00;;;;;;;;;;4991087;28;20044;-48
2021/01/27 08:59:29;;;;;;;0.00;0.00;;;;;;;;;;5006022;28;20106;-47
2021/01/27 09:01:55;;;;;;;1.80;0.32;;;;;;;;;;5006421;28;20535;-51
2021/01/27 09:04:33;;;;;;;0.00;0.00;;;;;;;;;;4991844;28;20458;-50
2021/01/27 09:07:03;;;;;;;0.28;0.17;;;;;;;;;;5008523;28;20037;-50
2021/01/27 09:09:37;;;;;;;0.00;0.00;;;;;;;;;;5007666;28;20462;-50
2021/01/27 09:12:06;;;;;;;0.00;0.00;;;;;;;;;;5004446;28;20069;-52
2021/01/27 09:14:33;;;;;;;0.52;0.30;;;;;;;;;;5006983;28;20057;-51
2021/01/27 09:17:00;;;;;;;0.00;0.00;;;;;;;;;;5028168;28;20502;-53
2021/01/27 09:19:31;;;;;;;0.00;0.00;;;;;;;;;;5049022;28;20025;-53
2021/01/27 09:22:10;;;;;;;1.77;0.70;;;;;;;;;;5050410;28;20127;-50
2021/01/27 09:24:38;;;;;;;1.27;0.40;;;;;;;;;;5049339;28;20040;-52
2021/01/27 09:27:21;;;;;;;32.05;0.98;;;;;;;;;;5046471;28;20035;-51
2021/01/27 09:30:17;;;;;;;6.32;1.17;;;;;;;;;;5043101;28;20504;-51
2021/01/27 09:32:43;;;;;;;2.38;0.90;;;;;;;;;;5038037;28;20037;-52
2021/01/27 09:35:27;;;;;;;1.25;0.10;;;;;;;;;;5045591;28;20041;-48
2021/01/27 09:38:00;;;;;;;0.30;0.15;;;;;;;;;;5048221;28;20014;-51
2021/01/27 09:40:28;;;;;;;0.52;0.25;;;;;;;;;;5047451;28;20559;-48
2021/01/27 09:42:59;;;;;;;0.85;0.85;;;;;;;;;;5050378;28;20021;-49
2021/01/27 09:45:27;;;;;;;0.32;0.32;;;;;;;;;;5046300;28;20021;-52
2021/01/27 09:47:53;;;;;;;7.75;1.02;;;;;;;;;;5049010;28;20417;-49
2021/01/27 09:50:20;;;;;;;4.00;1.65;;;;;;;;;;5047808;28;20036;-48
2021/01/27 09:52:51;;;;;;;0.60;0.30;;;;;;;;;;5048872;28;20029;-48
2021/01/27 09:55:18;;;;;;;1.80;0.25;;;;;;;;;;5048461;28;20032;-51
2021/01/27 09:57:45;;;;;;;4.15;1.02;;;;;;;;;;5046797;28;20048;-47
2021/01/27 10:00:24;;;;;;;0.25;0.13;;;;;;;;;;5045184;28;20045;-50
2021/01/27 10:02:50;;;;;;;1.15;0.55;;;;;;;;;;5045284;28;20036;-48
2021/01/27 10:05:34;;;;;;;0.43;0.35;;;;;;;;;;5047119;28;20052;-49
2021/01/27 10:08:02;;;;;;;0.00;0.00;;;;;;;;;;5046362;28;20029;-50
2021/01/27 10:10:28;;;;;;;1.52;0.85;;;;;;;;;;5047397;28;20056;-49
2021/01/27 10:12:57;;;;;;;1.77;1.13;;;;;;;;;;5047932;28;20025;-49
2021/01/27 10:15:26;;;;;;;1.83;0.85;;;;;;;;;;5046175;28;20040;-52
2021/01/27 10:18:02;;;;;;;0.20;0.20;;;;;;;;;;5045559;28;20027;-49
2021/01/27 10:20:29;;;;;;;0.17;0.17;;;;;;;;;;5046000;28;20032;-47
2021/01/27 10:23:00;;;;;;;0.65;0.05;;;;;;;;;;5048246;28;20029;-50
2021/01/27 10:25:29;;;;;;;5.00;1.02;;;;;;;;;;5046313;28;20031;-48
2021/01/27 10:28:06;;;;;;;0.15;0.00;;;;;;;;;;5046207;28;20405;-49
2021/01/27 10:30:34;;;;;;;0.00;0.00;;;;;;;;;;5045947;28;20032;-50
2021/01/27 10:33:00;;;;;;;0.00;0.00;;;;;;;;;;5045936;28;20021;-48
2021/01/27 10:35:31;;;;;;;1.23;0.95;;;;;;;;;;5047581;28;20040;-50
2021/01/27 10:38:08;;;;;;;0.00;0.00;;;;;;;;;;5047621;28;20029;-48
2021/01/27 10:40:35;;;;;;;0.00;0.00;;;;;;;;;;5050840;28;20071;-48
2021/01/27 10:43:21;;;;;;;0.00;0.00;;;;;;;;;;5050648;28;20021;-50
2021/01/27 10:45:47;;;;;;;0.10;0.10;;;;;;;;;;5049938;28;20025;-52
2021/01/27 10:48:26;;;;;;;0.85;0.45;;;;;;;;;;5048513;28;20029;-48
2021/01/27 10:50:55;;;;;;;0.00;0.00;;;;;;;;;;5049194;28;20103;-52
2021/01/27 10:53:21;;;;;;;0.20;0.20;;;;;;;;;;5049499;28;20033;-47
2021/01/27 10:55:52;;;;;;;0.00;0.00;;;;;;;;;;5041100;28;20053;-52
2021/01/27 10:58:18;;;;;;;0.28;0.10;;;;;;;;;;5050228;28;20044;-49
2021/01/27 11:00:45;;;;;;;0.00;0.00;;;;;;;;;;5050647;28;20041;-48
2021/01/27 11:03:12;;;;;;;0.00;0.00;;;;;;;;;;5049782;28;20375;-49
2021/01/27 11:05:38;;;;;;;0.70;0.52;;;;;;;;;;5050068;28;20043;-47
2021/01/27 11:08:05;;;;;;;0.00;0.00;;;;;;;;;;5049741;28;20083;-47
2021/01/27 11:10:32;;;;;;;1.25;0.10;;;;;;;;;;5050234;28;20037;-48
2021/01/27 11:12:58;;;;;;;0.00;0.00;;;;;;;;;;5052142;28;20099;-48
2021/01/27 11:15:25;;;;;;;0.00;0.00;;;;;;;;;;5049729;28;20090;-49
2021/01/27 11:17:52;;;;;;;0.00;0.00;;;;;;;;;;5049490;28;20470;-48
2021/01/27 11:20:19;;;;;;;0.25;0.15;;;;;;;;;;5049329;28;20075;-50
2021/01/27 11:22:46;;;;;;;0.00;0.00;;;;;;;;;;5049249;28;20156;-49
2021/01/27 11:25:14;;;;;;;0.00;0.00;;;;;;;;;;5052406;28;20036;-48
2021/01/27 11:27:40;;;;;;;0.00;0.00;;;;;;;;;;5050043;28;20508;-48
2021/01/27 11:30:07;;;;;;;0.00;0.00;;;;;;;;;;5050953;28;20076;-51
2021/01/27 11:32:35;;;;;;;2.95;0.32;;;;;;;;;;5048859;28;20036;-49
2021/01/27 11:35:01;;;;;;;0.10;0.10;;;;;;;;;;5049235;28;20044;-49
2021/01/27 11:37:27;;;;;;;0.20;0.20;;;;;;;;;;5051113;28;20523;-49
2021/01/27 11:39:53;;;;;;;0.00;0.00;;;;;;;;;;5051152;28;20513;-48
2021/01/27 11:42:19;;;;;;;0.00;0.00;;;;;;;;;;5048583;28;20470;-49
2021/01/27 11:44:45;;;;;;;0.20;0.00;;;;;;;;;;5046795;28;20032;-48
2021/01/27 11:47:11;;;;;;;1.25;0.50;;;;;;;;;;5048683;28;20405;-49
2021/01/27 11:49:39;;;;;;;0.43;0.13;;;;;;;;;;5048432;28;20103;-49
2021/01/27 11:52:07;;;;;;;0.00;0.00;;;;;;;;;;5052838;28;20032;-49
2021/01/27 11:54:34;;;;;;;0.30;0.15;;;;;;;;;;5047876;28;20033;-48
2021/01/27 11:57:01;;;;;;;0.00;0.00;;;;;;;;;;5048164;28;20025;-48
2021/01/27 11:59:27;;;;;;;0.00;0.00;;;;;;;;;;5047995;28;20101;-50
2021/01/27 12:01:53;;;;;;;0.30;0.30;;;;;;;;;;5045379;28;20037;-49
2021/01/27 12:04:19;;;;;;;0.93;0.47;;;;;;;;;;5048130;28;20021;-51
2021/01/27 12:06:45;;;;;;;0.00;0.00;;;;;;;;;;5047616;28;20516;-49
2021/01/27 12:09:11;;;;;;;0.35;0.20;;;;;;;;;;5047898;28;20032;-48
2021/01/27 12:11:37;;;;;;;1.15;0.95;;;;;;;;;;5046189;28;20143;-49
2021/01/27 12:14:03;;;;;;;0.00;0.00;;;;;;;;;;5046095;28;20032;-49
2021/01/27 12:16:29;;;;;;;0.05;0.00;;;;;;;;;;5047688;28;20025;-49
2021/01/27 12:18:56;;;;;;;0.20;0.00;;;;;;;;;;5048498;28;20052;-49
2021/01/27 12:21:22;;;;;;;0.32;0.10;;;;;;;;;;5046295;28;20037;-50
2021/01/27 12:23:48;;;;;;;0.80;0.20;;;;;;;;;;5046049;28;20064;-47
2021/01/27 12:26:15;;;;;;;0.00;0.00;;;;;;;;;;5046284;28;20037;-49
2021/01/27 12:28:42;;;;;;;0.00;0.00;;;;;;;;;;5045454;28;20486;-49
2021/01/27 12:31:10;;;;;;;0.47;0.47;;;;;;;;;;5050286;28;20526;-48
2021/01/27 12:33:36;;;;;;;0.00;0.00;;;;;;;;;;5050351;28;20029;-50
2021/01/27 12:36:03;;;;;;;0.55;0.20;;;;;;;;;;5047049;28;20060;-50
2021/01/27 12:38:29;;;;;;;0.00;0.00;;;;;;;;;;5046813;28;20025;-48
2021/01/27 12:40:56;;;;;;;0.10;0.10;;;;;;;;;;5047565;28;20048;-48
2021/01/27 12:43:22;;;;;;;0.00;0.00;;;;;;;;;;5049969;28;20036;-50
2021/01/27 12:45:48;;;;;;;0.00;0.00;;;;;;;;;;5049028;28;20056;-50
2021/01/27 12:48:14;;;;;;;0.00;0.00;;;;;;;;;;5046784;28;20021;-48
2021/01/27 12:50:40;;;;;;;0.00;0.00;;;;;;;;;;5046662;28;20044;-49
2021/01/27 12:53:06;;;;;;;0.00;0.00;;;;;;;;;;5047508;28;20051;-49
2021/01/27 12:55:33;;;;;;;0.00;0.00;;;;;;;;;;5048496;28;23950;-49
2021/01/27 12:58:00;;;;;;;0.00;0.00;;;;;;;;;;5049481;28;20082;-48
2021/01/27 13:00:27;;;;;;;0.00;0.00;;;;;;;;;;5045709;28;20489;-50
2021/01/27 13:02:54;;;;;;;0.00;0.00;;;;;;;;;;5045752;28;20056;-52
2021/01/27 13:05:21;;;;;;;0.00;0.00;;;;;;;;;;5047325;28;20081;-49
2021/01/27 13:07:48;;;;;;;0.00;0.00;;;;;;;;;;5045931;28;20025;-51
2021/01/27 13:10:15;;;;;;;0.00;0.00;;;;;;;;;;5047220;28;20044;-50
2021/01/27 13:12:42;;;;;;;0.22;0.20;;;;;;;;;;5046502;28;20394;-53
2021/01/27 13:15:09;;;;;;;0.80;0.15;;;;;;;;;;5043015;28;20051;-53
2021/01/27 13:17:35;;;;;;;0.22;0.10;;;;;;;;;;5045660;28;20406;-49
2021/01/27 13:20:02;;;;;;;0.00;0.00;;;;;;;;;;5046429;28;20075;-52
2021/01/27 13:22:28;;;;;;;0.00;0.00;;;;;;;;;;5047378;28;20025;-51
2021/01/27 13:24:54;;;;;;;0.00;0.00;;;;;;;;;;5045469;28;20518;-49
2021/01/27 13:27:20;;;;;;;0.28;0.28;;;;;;;;;;5044358;28;20013;-47
2021/01/27 13:29:46;;;;;;;0.20;0.00;;;;;;;;;;5046166;28;20056;-53
2021/01/27 13:32:12;;;;;;;0.95;0.65;;;;;;;;;;5045563;28;20132;-51
2021/01/27 13:34:38;;;;;;;0.00;0.00;;;;;;;;;;5047187;28;20036;-53
2021/01/27 13:37:04;;;;;;;0.10;0.10;;;;;;;;;;5047856;28;20025;-50
2021/01/27 13:39:30;;;;;;;0.00;0.00;;;;;;;;;;5037878;28;20037;-50
2021/01/27 13:41:57;;;;;;;0.20;0.20;;;;;;;;;;5047724;28;20505;-55
2021/01/27 13:44:24;;;;;;;0.00;0.00;;;;;;;;;;5046924;28;20025;-49
2021/01/27 13:46:50;;;;;;;1.27;0.30;;;;;;;;;;5047934;28;20031;-52
2021/01/27 13:49:16;;;;;;;0.00;0.00;;;;;;;;;;5046851;28;20513;-55
2021/01/27 13:51:42;;;;;;;0.00;0.00;;;;;;;;;;5049537;28;20467;-53
2021/01/27 13:54:08;;;;;;;0.00;0.00;;;;;;;;;;5048584;28;20053;-51
2021/01/27 13:56:34;;;;;;;0.05;0.00;;;;;;;;;;5047924;28;20076;-50
2021/01/27 13:59:00;;;;;;;0.43;0.20;;;;;;;;;;5048296;28;20028;-49
2021/01/27 14:01:27;;;;;;;0.03;0.00;;;;;;;;;;5045405;28;20037;-51
2021/01/27 14:03:53;;;;;;;0.00;0.00;;;;;;;;;;5049672;28;20047;-47
2021/01/27 14:06:19;;;;;;;0.00;0.00;;;;;;;;;;5045473;28;20059;-51
2021/01/27 14:08:45;;;;;;;0.00;0.00;;;;;;;;;;5046868;28;20116;-48
2021/01/27 14:11:11;;;;;;;0.00;0.00;;;;;;;;;;5047932;28;20044;-51
2021/01/27 14:13:37;;;;;;;0.00;0.00;;;;;;;;;;5048788;28;20573;-48
2021/01/27 14:16:03;;;;;;;0.00;0.00;;;;;;;;;;5053034;28;20051;-48
2021/01/27 14:18:29;;;;;;;0.20;0.20;;;;;;;;;;5049364;28;20017;-49
2021/01/27 14:20:55;;;;;;;0.00;0.00;;;;;;;;;;5051209;28;20109;-51
2021/01/27 14:23:21;;;;;;;0.00;0.00;;;;;;;;;;5061662;28;20100;-52
2021/01/27 14:25:48;;;;;;;0.00;0.00;;;;;;;;;;5049744;28;20124;-49
2021/01/27 14:28:14;;;;;;;0.00;0.00;;;;;;;;;;5046995;28;20057;-52
2021/01/27 14:30:42;;;;;;;0.00;0.00;;;;;;;;;;5050219;28;20451;-48
2021/01/27 14:33:09;;;;;;;0.00;0.00;;;;;;;;;;5045943;28;20029;-48
2021/01/27 14:35:35;;;;;;;0.28;0.28;;;;;;;;;;5047796;28;20033;-47
2021/01/27 14:38:01;;;;;;;0.00;0.00;;;;;;;;;;5051030;28;20033;-51
2021/01/27 14:40:29;;;;;;;0.00;0.00;;;;;;;;;;5050489;28;20029;-50
2021/01/27 14:42:55;;;;;;;0.00;0.00;;;;;;;;;;5052872;28;20040;-49
2021/01/27 14:45:22;;;;;;;0.13;0.10;;;;;;;;;;5049252;28;20037;-51
2021/01/27 14:47:48;;;;;;;0.00;0.00;;;;;;;;;;5050193;28;20028;-51
2021/01/27 14:50:14;;;;;;;0.00;0.00;;;;;;;;;;5049050;28;20044;-54
2021/01/27 14:52:40;;;;;;;0.00;0.00;;;;;;;;;;5049341;28;20051;-56
2021/01/27 14:55:07;;;;;;;0.00;0.00;;;;;;;;;;5048619;28;20449;-52
2021/01/27 14:57:33;;;;;;;0.50;0.38;;;;;;;;;;5050549;28;20624;-53
2021/01/27 14:59:59;;;;;;;0.00;0.00;;;;;;;;;;5044809;28;20057;-54
2021/01/27 15:02:25;;;;;;;0.00;0.00;;;;;;;;;;5048396;28;20112;-54
2021/01/27 15:04:52;;;;;;;0.30;0.05;;;;;;;;;;5049697;28;20104;-53
2021/01/27 15:07:19;;;;;;;0.00;0.00;;;;;;;;;;5049201;28;20036;-50
2021/01/27 15:09:45;;;;;;;0.17;0.10;;;;;;;;;;5051789;28;20108;-54
2021/01/27 15:12:12;;;;;;;0.00;0.00;;;;;;;;;;5047472;28;20029;-48
2021/01/27 15:14:38;;;;;;;0.00;0.00;;;;;;;;;;5048438;28;20061;-51
2021/01/27 15:17:04;;;;;;;0.00;0.00;;;;;;;;;;5048524;28;20029;-54
2021/01/27 15:19:30;;;;;;;0.20;0.20;;;;;;;;;;5050627;28;20030;-51
2021/01/27 15:21:56;;;;;;;0.15;0.15;;;;;;;;;;5050812;28;20047;-50
2021/01/27 15:24:23;;;;;;;0.00;0.00;;;;;;;;;;5047355;28;20371;-55
2021/01/27 15:26:49;;;;;;;0.00;0.00;;;;;;;;;;5048735;28;20032;-49
2021/01/27 15:29:15;;;;;;;0.47;0.25;;;;;;;;;;5046320;28;20021;-51
2021/01/27 15:31:41;;;;;;;0.40;0.20;;;;;;;;;;5046472;28;20120;-52
2021/01/27 15:34:07;;;;;;;0.55;0.38;;;;;;;;;;5050889;28;20632;-51
2021/01/27 15:36:33;;;;;;;0.10;0.10;;;;;;;;;;5047598;28;20037;-54
2021/01/27 15:38:59;;;;;;;1.38;1.02;;;;;;;;;;5048130;28;20029;-55
2021/01/27 15:41:26;;;;;;;1.27;0.50;;;;;;;;;;5048559;28;20547;-53
2021/01/27 15:43:52;;;;;;;0.28;0.28;;;;;;;;;;5048867;28;20022;-54
2021/01/27 15:46:19;;;;;;;0.15;0.13;;;;;;;;;;5048791;28;20064;-51
2021/01/27 15:48:45;;;;;;;0.95;0.45;;;;;;;;;;5050051;28;20094;-51
2021/01/27 15:51:11;;;;;;;0.20;0.20;;;;;;;;;;5046069;28;20048;-50
2021/01/27 15:53:38;;;;;;;3.03;0.22;;;;;;;;;;5046358;28;20083;-48
2021/01/27 15:56:04;;;;;;;0.10;0.10;;;;;;;;;;5046584;28;20505;-49
2021/01/27 15:58:31;;;;;;;0.70;0.28;;;;;;;;;;5047265;28;20120;-49
2021/01/27 16:00:57;;;;;;;1.02;0.57;;;;;;;;;;5045604;28;20419;-50
2021/01/27 16:03:23;;;;;;;0.82;0.60;;;;;;;;;;5038286;28;20052;-51
2021/01/27 16:05:49;;;;;;;0.00;0.00;;;;;;;;;;5034825;28;20492;-54
2021/01/27 16:08:15;;;;;;;0.70;0.57;;;;;;;;;;5039107;28;20485;-49
2021/01/27 16:10:41;;;;;;;0.00;0.00;;;;;;;;;;5034098;28;20121;-49
2021/01/27 16:13:08;;;;;;;1.35;0.80;;;;;;;;;;5040362;28;20417;-55
2021/01/27 16:15:36;;;;;;;3.00;1.48;;;;;;;;;;5042117;28;20025;-51
2021/01/27 16:18:03;;;;;;;1.38;0.82;;;;;;;;;;5041903;28;20068;-53
2021/01/27 16:20:29;;;;;;;0.68;0.50;;;;;;;;;;5044464;28;20406;-51
2021/01/27 16:22:55;;;;;;;0.38;0.38;;;;;;;;;;5044490;28;20035;-52
2021/01/27 16:25:28;;;;;;;0.90;0.82;;;;;;;;;;5042428;28;20087;-53
2021/01/27 16:27:55;;;;;;;3.13;1.52;;;;;;;;;;5042500;28;20419;-49
2021/01/27 16:30:21;;;;;;;4.22;2.63;;;;;;;;;;5042135;28;20925;-50
2021/01/27 16:32:49;;;;;;;0.10;0.10;;;;;;;;;;5037313;28;20028;-53
2021/01/27 16:35:16;;;;;;;7.53;2.85;;;;;;;;;;5041132;28;20025;-51
2021/01/27 16:37:42;;;;;;;0.00;0.00;;;;;;;;;;5039889;28;20045;-52
2021/01/27 16:40:09;;;;;;;3.80;2.85;;;;;;;;;;5047321;28;20024;-48
2021/01/27 16:42:35;;;;;;;3.63;1.55;;;;;;;;;;5043107;28;20038;-50
2021/01/27 16:45:01;;;;;;;1.80;1.33;;;;;;;;;;5043117;28;20043;-48
2021/01/27 16:47:27;;;;;;;1.38;0.65;;;;;;;;;;5043451;28;20048;-52
2021/01/27 16:49:53;;;;;;;1.48;0.70;;;;;;;;;;5040297;28;20112;-51
2021/01/27 16:52:19;;;;;;;11.38;2.72;;;;;;;;;;5042594;28;20057;-52
2021/01/27 16:54:45;;;;;;;2.80;1.60;;;;;;;;;;5045492;28;20067;-50
2021/01/27 16:57:12;;;;;;;1.38;0.52;;;;;;;;;;5045073;28;20025;-49
2021/01/27 16:59:38;;;;;;;2.42;2.17;;;;;;;;;;5043723;28;20114;-52
2021/01/27 17:02:04;;;;;;;6.80;1.48;;;;;;;;;;5039503;28;20025;-51
2021/01/27 17:04:30;;;;;;;3.50;0.98;;;;;;;;;;5040899;28;20063;-52
2021/01/27 17:06:58;;;;;;;11.57;3.30;;;;;;;;;;5044457;28;20060;-60
2021/01/27 17:09:25;;;;;;;0.30;0.28;;;;;;;;;;5043269;28;20647;-50
2021/01/27 17:11:51;;;;;;;3.38;1.30;;;;;;;;;;5038409;28;20040;-50
2021/01/27 17:14:19;;;;;;;0.88;0.57;;;;;;;;;;5041768;28;20539;-49
2021/01/27 17:16:45;;;;;;;6.25;1.60;;;;;;;;;;5042998;28;20078;-50
2021/01/27 17:19:12;;;;;;;1.15;0.98;;;;;;;;;;5046687;28;20383;-48
2021/01/27 17:21:38;;;;;;;2.42;1.88;;;;;;;;;;5039822;28;20025;-48
2021/01/27 17:24:04;;;;;;;1.50;1.15;;;;;;;;;;5044225;28;20036;-48
2021/01/27 17:26:30;;;;;;;5.15;2.28;;;;;;;;;;5043527;28;20493;-51
2021/01/27 17:28:57;;;;;;;2.22;1.40;;;;;;;;;;5044641;28;20100;-49
2021/01/27 17:31:23;;;;;;;5.28;2.90;;;;;;;;;;5044823;28;20032;-59
2021/01/27 17:33:49;;;;;;;1.77;0.38;;;;;;;;;;5045407;28;20559;-48
2021/01/27 17:36:17;;;;;;;4.20;2.70;;;;;;;;;;5043682;28;20075;-50
2021/01/27 17:38:43;;;;;;;2.92;1.17;;;;;;;;;;5044183;28;20033;-48
2021/01/27 17:41:10;;;;;;;1.83;0.98;;;;;;;;;;5042883;28;20036;-50
2021/01/27 17:43:36;;;;;;;8.65;2.92;;;;;;;;;;5039860;28;20021;-49
2021/01/27 17:46:02;;;;;;;0.00;0.00;;;;;;;;;;5041178;28;20049;-50
2021/01/27 17:48:28;;;;;;;4.20;1.27;;;;;;;;;;5039130;28;20449;-50
2021/01/27 17:50:54;;;;;;;1.58;0.95;;;;;;;;;;5041793;28;20087;-50
2021/01/27 17:53:20;;;;;;;7.95;3.22;;;;;;;;;;5043908;28;20059;-48
2021/01/27 17:55:46;;;;;;;1.20;0.73;;;;;;;;;;5042068;28;20044;-53
2021/01/27 17:58:12;;;;;;;3.60;1.75;;;;;;;;;;5043980;28;20470;-50
2021/01/27 18:00:39;;;;;;;4.15;1.55;;;;;;;;;;5041496;28;20407;-53
2021/01/27 18:03:07;;;;;;;2.28;1.40;;;;;;;;;;5040675;28;20037;-48
2021/01/27 18:05:34;;;;;;;7.07;2.38;;;;;;;;;;5046806;28;20119;-52
2021/01/27 18:08:00;;;;;;;0.30;0.28;;;;;;;;;;5036530;28;20025;-48
2021/01/27 18:10:27;;;;;;;3.17;1.42;;;;;;;;;;5050169;28;20041;-52
2021/01/27 18:12:53;;;;;;;2.58;1.50;;;;;;;;;;5048652;28;20036;-48
2021/01/27 18:15:26;;;;;;;3.83;2.15;;;;;;;;;;5045236;28;20052;-53
2021/01/27 18:17:52;;;;;;;5.40;1.67;;;;;;;;;;5048949;28;20025;-47
2021/01/27 18:20:20;;;;;;;2.58;1.42;;;;;;;;;;5049304;28;20025;-53
2021/01/27 18:22:47;;;;;;;3.97;2.00;;;;;;;;;;5047547;28;20021;-50
2021/01/27 18:25:15;;;;;;;0.65;0.65;;;;;;;;;;5045137;28;20086;-47
2021/01/27 18:27:41;;;;;;;1.95;1.17;;;;;;;;;;5049173;28;20021;-54
2021/01/27 18:30:09;;;;;;;10.27;1.45;;;;;;;;;;5049122;28;20091;-48
2021/01/27 18:32:35;;;;;;;3.13;2.38;;;;;;;;;;5046111;28;20545;-48
2021/01/27 18:35:02;;;;;;;1.45;1.23;;;;;;;;;;5040967;28;20021;-51
2021/01/27 18:37:28;;;;;;;2.83;0.85;;;;;;;;;;5048240;28;20083;-48
2021/01/27 18:39:54;;;;;;;7.30;3.67;;;;;;;;;;5049783;28;20445;-48
2021/01/27 18:42:20;;;;;;;2.58;0.98;;;;;;;;;;5048240;28;20032;-51
2021/01/27 18:44:46;;;;;;;3.35;1.67;;;;;;;;;;5048899;28;20423;-52
2021/01/27 18:47:12;;;;;;;1.90;1.38;;;;;;;;;;5049174;28;20090;-49
2021/01/27 18:49:38;;;;;;;1.40;0.98;;;;;;;;;;5049460;28;20049;-49
2021/01/27 18:52:05;;;;;;;12.88;2.33;;;;;;;;;;5049824;28;20563;-54
2021/01/27 18:54:32;;;;;;;5.25;2.08;;;;;;;;;;5048861;28;20028;-48
2021/01/27 18:56:59;;;;;;;1.73;1.38;;;;;;;;;;5049323;28;20032;-50
2021/01/27 18:59:25;;;;;;;1.83;0.65;;;;;;;;;;5052513;28;20474;-50
2021/01/27 19:01:52;;;;;;;1.55;0.82;;;;;;;;;;5052069;28;20025;-48
2021/01/27 19:04:18;;;;;;;2.80;1.02;;;;;;;;;;5053379;28;20067;-48
2021/01/27 19:06:44;;;;;;;15.07;1.98;;;;;;;;;;5044019;28;20025;-57
2021/01/27 19:09:11;;;;;;;16.48;2.33;;;;;;;;;;5045274;28;20478;-54
2021/01/27 19:11:38;;;;;;;4.05;1.88;;;;;;;;;;5047846;28;20039;-54
2021/01/27 19:14:04;;;;;;;0.38;0.20;;;;;;;;;;5051622;28;20100;-51
2021/01/27 19:16:30;;;;;;;0.10;0.10;;;;;;;;;;5052681;28;20039;-55
2021/01/27 19:18:56;;;;;;;4.57;1.42;;;;;;;;;;5050200;28;20431;-55
2021/01/27 19:21:23;;;;;;;2.60;1.10;;;;;;;;;;5052496;28;20040;-55
2021/01/27 19:23:50;;;;;;;7.22;2.83;;;;;;;;;;5051735;28;20386;-54
2021/01/27 19:26:16;;;;;;;3.65;1.23;;;;;;;;;;5052262;28;20048;-55
2021/01/27 19:28:42;;;;;;;1.27;0.98;;;;;;;;;;5049107;28;20025;-55
2021/01/27 19:31:10;;;;;;;2.65;1.85;;;;;;;;;;5053189;28;20505;-53
2021/01/27 19:33:36;;;;;;;11.15;2.58;;;;;;;;;;5052268;28;20021;-53
2021/01/27 19:36:02;;;;;;;6.18;2.70;;;;;;;;;;5051677;28;20033;-54
2021/01/27 19:38:28;;;;;;;3.40;1.02;;;;;;;;;;5048772;28;20056;-54
2021/01/27 19:40:54;;;;;;;1.05;0.60;;;;;;;;;;5050157;28;20033;-51
2021/01/27 19:43:23;;;;;;;0.73;0.73;;;;;;;;;;5049227;28;20029;-50
2021/01/27 19:45:51;;;;;;;0.00;0.00;;;;;;;;;;5049924;28;20029;-50
2021/01/27 19:48:18;;;;;;;8.57;3.53;;;;;;;;;;5046975;28;20368;-54
2021/01/27 19:50:45;;;;;;;0.73;0.50;;;;;;;;;;5049738;28;20033;-52
2021/01/27 19:53:12;;;;;;;0.15;0.00;;;;;;;;;;5049555;28;20596;-52
2021/01/27 19:55:39;;;;;;;3.50;1.08;;;;;;;;;;5050080;28;20013;-51
2021/01/27 19:58:05;;;;;;;11.23;4.03;;;;;;;;;;5050799;28;20059;-51
2021/01/27 20:00:32;;;;;;;6.68;1.98;;;;;;;;;;5049806;28;20048;-53
2021/01/27 20:03:00;;;;;;;8.35;1.02;;;;;;;;;;5050317;28;20024;-50
2021/01/27 20:05:27;;;;;;;65.78;26.20;;;;;;;;;;5049657;28;20036;-53
2021/01/27 20:07:53;;;;;;;4.97;1.65;;;;;;;;;;5049473;28;20599;-50
2021/01/27 20:10:21;;;;;;;12.75;3.20;;;;;;;;;;5050169;28;20033;-50
2021/01/27 20:12:50;;;;;;;11.60;2.97;;;;;;;;;;5050506;28;20029;-53
2021/01/27 20:15:19;;;;;;;0.70;0.68;;;;;;;;;;5077763;28;20446;-54
2021/01/27 20:17:45;;;;;;;9.65;1.98;;;;;;;;;;5049145;28;20497;-55
2021/01/27 20:20:11;;;;;;;0.70;0.57;;;;;;;;;;5046702;28;20100;-51
2021/01/27 20:22:37;;;;;;;4.85;2.17;;;;;;;;;;5048126;28;20047;-54
2021/01/27 20:25:03;;;;;;;4.78;2.83;;;;;;;;;;5048898;28;20044;-52
2021/01/27 20:27:30;;;;;;;11.40;1.92;;;;;;;;;;5049533;28;20078;-50
2021/01/27 20:29:56;;;;;;;0.40;0.30;;;;;;;;;;5049512;28;20037;-51
2021/01/27 20:32:22;;;;;;;1.05;1.02;;;;;;;;;;5049106;28;20028;-55
2021/01/27 20:34:48;;;;;;;11.90;2.20;;;;;;;;;;5048778;28;20025;-55
2021/01/27 20:37:14;;;;;;;4.22;1.08;;;;;;;;;;5049474;28;20024;-54
2021/01/27 20:39:40;;;;;;;11.23;1.40;;;;;;;;;;5049196;28;20033;-48
2021/01/27 20:42:06;;;;;;;11.48;3.35;;;;;;;;;;5049514;28;20033;-57
2021/01/27 20:44:32;;;;;;;5.25;1.67;;;;;;;;;;5049234;28;20078;-52
2021/01/27 20:46:59;;;;;;;1.98;1.45;;;;;;;;;;5047785;28;20083;-53
2021/01/27 20:49:25;;;;;;;2.37;1.70;;;;;;;;;;5049346;28;20036;-53
2021/01/27 20:51:51;;;;;;;15.88;3.60;;;;;;;;;;5049482;28;20037;-51
2021/01/27 20:54:17;;;;;;;9.05;1.27;;;;;;;;;;5049270;28;20029;-55